createdAt,value
2019-05-26T02:13:53.850Z,0.00
2019-05-26T02:14:53.839Z,0.00
2019-05-26T02:15:53.827Z,0.00
2019-05-26T02:16:53.870Z,0.00
2019-05-26T02:17:53.804Z,0.00
2019-05-26T02:18:53.793Z,0.00
2019-05-26T02:20:53.777Z,0.00
2019-05-26T02:21:53.761Z,0.00
2019-05-26T02:22:53.746Z,0.00
2019-05-26T02:23:53.732Z,0.00
2019-05-26T02:24:53.721Z,0.00
2019-05-26T02:25:53.712Z,0.00
2019-05-26T02:26:53.700Z,0.00
2019-05-26T02:27:53.690Z,0.00
2019-05-26T02:28:53.679Z,0.00
2019-05-26T02:29:53.665Z,0.00
2019-05-26T02:30:53.667Z,0.00
2019-05-26T02:31:53.641Z,0.00
2019-05-26T02:32:53.632Z,0.00
2019-05-26T02:33:53.624Z,0.00
2019-05-26T02:34:53.612Z,0.00
2019-05-26T02:35:53.602Z,0.00
2019-05-26T02:36:53.587Z,0.00
2019-05-26T02:37:53.573Z,0.00
2019-05-26T02:39:01.991Z,0.00
2019-05-26T02:40:18.033Z,0.00
2019-05-26T02:41:18.025Z,0.00
2019-05-26T02:42:18.012Z,0.00
2019-05-26T02:43:18.006Z,0.00
2019-05-26T02:44:17.986Z,0.00
2019-05-26T02:45:17.974Z,0.00
2019-05-26T02:46:17.971Z,0.00
2019-05-26T02:47:17.951Z,0.00
2019-05-26T02:48:17.939Z,0.00
2019-05-26T02:49:17.935Z,0.00
2019-05-26T02:50:17.926Z,0.00
2019-05-26T02:51:17.915Z,0.00
2019-05-26T02:52:17.895Z,0.00
2019-05-26T02:53:17.883Z,0.00
2019-05-26T02:54:17.876Z,0.00
2019-05-26T02:55:17.862Z,0.00
2019-05-26T02:56:17.859Z,0.00
2019-05-26T02:57:17.860Z,5.62
2019-05-26T02:58:17.898Z,5.62
2019-05-26T02:59:17.818Z,5.62
2019-05-26T03:00:17.814Z,5.62
2019-05-26T03:01:17.801Z,5.62
2019-05-26T03:02:17.782Z,5.62
2019-05-26T03:03:17.769Z,5.62
2019-05-26T03:04:17.760Z,5.62
2019-05-26T03:05:17.748Z,5.62
2019-05-26T03:06:17.737Z,5.62
2019-05-26T03:07:17.733Z,5.62
2019-05-26T03:08:17.727Z,5.62
2019-05-26T03:09:23.137Z,5.62
2019-05-26T03:10:18.729Z,11.25
2019-05-26T03:11:17.682Z,11.25
2019-05-26T03:12:17.681Z,11.25
2019-05-26T03:13:17.659Z,11.25
2019-05-26T03:14:17.649Z,11.25
2019-05-26T03:15:17.636Z,11.25
2019-05-26T03:16:17.629Z,11.25
2019-05-26T03:17:17.612Z,11.25
2019-05-26T03:18:17.603Z,11.25
2019-05-26T03:19:17.589Z,16.87
2019-05-26T03:20:17.607Z,16.87
2019-05-26T03:21:17.567Z,16.87
2019-05-26T03:22:17.555Z,16.87
2019-05-26T03:23:17.550Z,16.87
2019-05-26T03:24:17.530Z,16.87
2019-05-26T03:25:17.534Z,22.50
2019-05-26T03:26:17.508Z,22.50
2019-05-26T03:27:17.511Z,22.50
2019-05-26T03:28:17.497Z,22.50
2019-05-26T03:29:17.475Z,22.50
2019-05-26T03:30:17.468Z,28.12
2019-05-26T03:31:17.455Z,28.12
2019-05-26T03:32:17.445Z,28.12
2019-05-26T03:33:17.429Z,28.12
2019-05-26T03:34:17.449Z,28.12
2019-05-26T03:35:17.412Z,33.75
2019-05-26T03:36:17.393Z,33.75
2019-05-26T03:37:17.384Z,33.75
2019-05-26T03:38:17.371Z,33.75
2019-05-26T03:39:17.358Z,33.75
2019-05-26T03:40:17.348Z,33.75
2019-05-26T03:41:17.383Z,33.75
2019-05-26T03:42:17.330Z,39.37
2019-05-26T03:43:17.314Z,39.37
2019-05-26T03:44:17.326Z,39.37
2019-05-26T03:45:17.291Z,45.00
2019-05-26T03:46:17.453Z,45.00
2019-05-26T03:47:17.392Z,45.00
2019-05-26T03:48:17.259Z,50.62
2019-05-26T03:49:17.245Z,50.62
2019-05-26T03:50:17.237Z,50.62
2019-05-26T03:51:17.235Z,50.62
2019-05-26T03:52:17.229Z,56.25
2019-05-26T03:53:17.200Z,56.25
2019-05-26T03:54:17.190Z,56.25
2019-05-26T03:55:17.177Z,56.25
2019-05-26T03:56:17.165Z,56.25
2019-05-26T03:57:17.155Z,61.87
2019-05-26T03:58:17.149Z,61.87
2019-05-26T03:59:17.144Z,61.87
2019-05-26T04:00:17.120Z,61.87
2019-05-26T04:01:17.109Z,61.87
2019-05-26T04:02:17.110Z,67.50
2019-05-26T04:03:17.223Z,67.50
2019-05-26T04:04:17.075Z,67.50
2019-05-26T04:05:17.070Z,67.50
2019-05-26T04:06:17.056Z,73.12
2019-05-26T04:07:17.044Z,73.12
2019-05-26T04:08:17.034Z,73.12
2019-05-26T04:09:17.022Z,78.75
2019-05-26T04:10:17.012Z,78.75
2019-05-26T04:11:17.000Z,78.75
2019-05-26T04:12:16.992Z,84.37
2019-05-26T04:13:16.975Z,84.37
2019-05-26T04:14:16.961Z,84.37
2019-05-26T04:15:16.953Z,90.00
2019-05-26T04:16:16.945Z,90.00
2019-05-26T04:17:16.929Z,90.00
2019-05-26T04:18:16.916Z,95.62
2019-05-26T04:19:16.907Z,95.62
2019-05-26T04:20:16.905Z,101.25
2019-05-26T04:21:16.888Z,106.87
2019-05-26T04:22:16.872Z,112.50
2019-05-26T04:23:16.859Z,112.50
2019-05-26T04:24:16.851Z,112.50
2019-05-26T04:25:16.859Z,112.50
2019-05-26T04:26:16.831Z,118.12
2019-05-26T04:27:16.818Z,118.12
2019-05-26T04:28:16.805Z,118.12
2019-05-26T04:29:16.793Z,123.75
2019-05-26T04:30:16.790Z,123.75
2019-05-26T04:31:16.773Z,129.37
2019-05-26T04:32:16.768Z,129.37
2019-05-26T04:33:16.750Z,129.37
2019-05-26T04:34:16.738Z,129.37
2019-05-26T04:35:16.728Z,129.37
2019-05-26T04:36:16.717Z,129.37
2019-05-26T04:37:16.710Z,129.37
2019-05-26T04:38:16.693Z,129.37
2019-05-26T04:39:16.683Z,129.37
2019-05-26T04:40:26.587Z,129.37
2019-05-26T04:41:17.680Z,135.00
2019-05-26T04:42:16.669Z,135.00
2019-05-26T04:43:16.650Z,135.00
2019-05-26T04:44:16.625Z,140.62
2019-05-26T04:45:16.614Z,140.62
2019-05-26T04:46:16.605Z,146.25
2019-05-26T04:47:16.592Z,140.62
2019-05-26T04:48:16.582Z,146.25
2019-05-26T04:49:16.577Z,151.87
2019-05-26T04:50:16.578Z,151.87
2019-05-26T04:51:16.561Z,157.50
2019-05-26T04:52:16.538Z,163.12
2019-05-26T04:53:16.525Z,168.75
2019-05-26T04:54:16.519Z,174.37
2019-05-26T04:55:16.507Z,185.62
2019-05-26T04:56:16.498Z,185.62
2019-05-26T04:57:16.482Z,185.62
2019-05-26T04:58:16.472Z,196.87
2019-05-26T04:59:16.463Z,196.87
2019-05-26T05:00:16.452Z,208.12
2019-05-26T05:01:16.437Z,230.62
2019-05-26T05:02:16.424Z,241.87
2019-05-26T05:03:16.433Z,281.25
2019-05-26T05:04:16.408Z,281.25
2019-05-26T05:05:16.396Z,264.37
2019-05-26T05:06:16.382Z,264.37
2019-05-26T05:07:16.389Z,241.87
2019-05-26T05:08:16.360Z,241.87
2019-05-26T05:09:16.349Z,241.87
2019-05-26T05:10:16.336Z,241.87
2019-05-26T05:11:16.331Z,247.50
2019-05-26T05:12:16.322Z,247.50
2019-05-26T05:13:16.303Z,264.37
2019-05-26T05:14:16.294Z,281.25
2019-05-26T05:15:16.283Z,298.12
2019-05-26T05:16:16.272Z,286.87
2019-05-26T05:17:16.266Z,286.87
2019-05-26T05:18:16.258Z,320.62
2019-05-26T05:19:16.236Z,371.25
2019-05-26T05:20:16.231Z,315.00
2019-05-26T05:21:16.219Z,343.12
2019-05-26T05:22:16.202Z,382.50
2019-05-26T05:23:16.192Z,427.50
2019-05-26T05:24:16.189Z,455.62
2019-05-26T05:25:16.169Z,438.75
2019-05-26T05:26:16.159Z,466.87
2019-05-26T05:27:16.151Z,489.37
2019-05-26T05:28:16.142Z,534.37
2019-05-26T05:29:16.130Z,540.00
2019-05-26T05:30:16.124Z,540.00
2019-05-26T05:31:16.102Z,545.62
2019-05-26T05:32:16.090Z,556.87
2019-05-26T05:33:16.094Z,607.50
2019-05-26T05:34:16.074Z,630.00
2019-05-26T05:35:16.057Z,618.75
2019-05-26T05:36:16.048Z,607.50
2019-05-26T05:37:16.450Z,596.25
2019-05-26T05:38:16.027Z,534.37
2019-05-26T05:39:16.013Z,545.62
2019-05-26T05:40:16.004Z,523.12
2019-05-26T05:41:15.996Z,506.25
2019-05-26T05:42:15.981Z,506.25
2019-05-26T05:43:15.972Z,450.00
2019-05-26T05:44:15.961Z,450.00
2019-05-26T05:45:15.952Z,405.00
2019-05-26T05:46:15.936Z,466.87
2019-05-26T05:47:15.928Z,466.87
2019-05-26T05:48:15.949Z,444.37
2019-05-26T05:49:15.904Z,438.75
2019-05-26T05:50:15.896Z,450.00
2019-05-26T05:51:15.886Z,483.75
2019-05-26T05:52:15.874Z,455.62
2019-05-26T05:53:15.861Z,438.75
2019-05-26T05:54:15.855Z,433.12
2019-05-26T05:55:15.846Z,489.37
2019-05-26T05:56:15.831Z,489.37
2019-05-26T05:57:15.822Z,506.25
2019-05-26T05:58:15.809Z,517.50
2019-05-26T05:59:15.803Z,489.37
2019-05-26T06:00:15.790Z,500.62
2019-05-26T06:01:15.774Z,506.25
2019-05-26T06:02:15.762Z,528.75
2019-05-26T06:03:18.591Z,523.12
2019-05-26T06:04:15.740Z,534.37
2019-05-26T06:05:15.731Z,568.12
2019-05-26T06:06:15.717Z,562.50
2019-05-26T06:07:15.712Z,506.25
2019-05-26T06:08:15.694Z,528.75
2019-05-26T06:09:15.690Z,489.37
2019-05-26T06:10:15.678Z,506.25
2019-05-26T06:11:17.293Z,523.12
2019-05-26T06:12:15.656Z,523.12
2019-05-26T06:13:15.641Z,556.87
2019-05-26T06:14:15.627Z,562.50
2019-05-26T06:15:17.153Z,590.62
2019-05-26T06:16:15.605Z,630.00
2019-05-26T06:17:15.601Z,613.12
2019-05-26T06:18:15.590Z,630.00
2019-05-26T06:19:15.599Z,630.00
2019-05-26T06:20:15.599Z,641.25
2019-05-26T06:21:15.561Z,658.12
2019-05-26T06:22:15.543Z,669.37
2019-05-26T06:23:15.547Z,624.37
2019-05-26T06:24:15.558Z,613.12
2019-05-26T06:25:15.552Z,613.12
2019-05-26T06:26:15.495Z,624.37
2019-05-26T06:27:15.483Z,658.12
2019-05-26T06:28:15.471Z,708.75
2019-05-26T06:29:15.460Z,691.87
2019-05-26T06:30:15.446Z,714.37
2019-05-26T06:31:15.442Z,725.62
2019-05-26T06:32:15.799Z,759.37
2019-05-26T06:33:15.421Z,736.87
2019-05-26T06:34:15.408Z,731.25
2019-05-26T06:35:15.397Z,680.62
2019-05-26T06:36:15.382Z,686.25
2019-05-26T06:37:15.377Z,714.37
2019-05-26T06:38:15.362Z,753.75
2019-05-26T06:39:15.349Z,821.25
2019-05-26T06:40:15.338Z,871.87
2019-05-26T06:41:30.421Z,787.50
2019-05-26T06:42:39.795Z,748.12
2019-05-26T06:43:39.785Z,905.62
2019-05-26T06:44:52.996Z,978.75
2019-05-26T06:45:40.812Z,905.62
2019-05-26T06:46:39.752Z,871.87
2019-05-26T06:47:39.783Z,928.12
2019-05-26T06:48:39.728Z,838.12
2019-05-26T06:49:39.723Z,1108.12
2019-05-26T06:50:39.707Z,1063.12
2019-05-26T06:51:39.710Z,984.37
2019-05-26T06:52:39.689Z,967.50
2019-05-26T06:53:39.675Z,939.37
2019-05-26T06:54:39.665Z,967.50
2019-05-26T06:55:39.651Z,1029.37
2019-05-26T06:56:39.637Z,1006.87
2019-05-26T06:57:39.635Z,826.87
2019-05-26T06:58:39.615Z,888.75
2019-05-26T06:59:39.608Z,866.25
2019-05-26T07:00:39.595Z,860.62
2019-05-26T07:01:39.588Z,877.50
2019-05-26T07:02:39.571Z,1125.00
2019-05-26T07:03:39.561Z,1147.50
2019-05-26T07:04:39.548Z,1012.50
2019-05-26T07:05:39.547Z,1023.75
2019-05-26T07:06:39.533Z,781.87
2019-05-26T07:07:39.519Z,1113.75
2019-05-26T07:08:39.517Z,1164.37
2019-05-26T07:09:39.496Z,1203.75
2019-05-26T07:10:39.487Z,1175.62
2019-05-26T07:11:53.987Z,945.00
2019-05-26T07:13:03.951Z,950.62
2019-05-26T07:14:03.930Z,1057.50
2019-05-26T07:15:03.927Z,1068.75
2019-05-26T07:16:03.918Z,1147.50
2019-05-26T07:17:03.905Z,1147.50
2019-05-26T07:18:03.886Z,1102.50
2019-05-26T07:19:03.878Z,905.62
2019-05-26T07:20:03.866Z,1153.12
2019-05-26T07:21:03.854Z,1203.75
2019-05-26T07:22:03.845Z,1147.50
2019-05-26T07:23:05.379Z,1130.62
2019-05-26T07:24:03.821Z,1102.50
2019-05-26T07:25:03.810Z,1158.75
2019-05-26T07:26:03.799Z,1108.12
2019-05-26T07:27:03.787Z,1035.00
2019-05-26T07:28:03.777Z,967.50
2019-05-26T07:29:03.773Z,905.62
2019-05-26T07:30:03.752Z,860.62
2019-05-26T07:31:03.744Z,855.00
2019-05-26T07:32:03.731Z,900.00
2019-05-26T07:33:03.733Z,933.75
2019-05-26T07:34:03.706Z,888.75
2019-05-26T07:35:03.696Z,905.62
2019-05-26T07:36:03.693Z,905.62
2019-05-26T07:37:03.676Z,860.62
2019-05-26T07:38:03.672Z,888.75
2019-05-26T07:39:03.654Z,894.37
2019-05-26T07:40:03.647Z,905.62
2019-05-26T07:41:03.628Z,922.50
2019-05-26T07:42:09.975Z,950.62
2019-05-26T07:43:28.388Z,1029.37
2019-05-26T07:44:28.072Z,1040.62
2019-05-26T07:45:28.056Z,1096.87
2019-05-26T07:46:28.050Z,1108.12
2019-05-26T07:47:28.034Z,973.12
2019-05-26T07:48:28.025Z,956.25
2019-05-26T07:49:28.012Z,911.25
2019-05-26T07:50:28.008Z,877.50
2019-05-26T07:51:27.990Z,843.75
2019-05-26T07:52:27.979Z,849.37
2019-05-26T07:53:27.971Z,883.12
2019-05-26T07:54:27.958Z,950.62
2019-05-26T07:55:27.950Z,950.62
2019-05-26T07:56:27.945Z,933.75
2019-05-26T07:57:27.921Z,894.37
2019-05-26T07:58:27.913Z,855.00
2019-05-26T07:59:27.906Z,877.50
2019-05-26T08:00:27.889Z,883.12
2019-05-26T08:01:35.573Z,883.12
2019-05-26T08:02:28.888Z,894.37
2019-05-26T08:03:27.855Z,911.25
2019-05-26T08:04:27.848Z,905.62
2019-05-26T08:05:27.934Z,866.25
2019-05-26T08:06:27.820Z,731.25
2019-05-26T08:07:27.811Z,770.62
2019-05-26T08:08:27.802Z,697.50
2019-05-26T08:09:27.791Z,607.50
2019-05-26T08:10:27.777Z,528.75
2019-05-26T08:11:27.775Z,478.12
2019-05-26T08:12:30.597Z,545.62
2019-05-26T08:13:27.743Z,483.75
2019-05-26T08:14:27.739Z,511.87
2019-05-26T08:15:27.720Z,393.75
2019-05-26T08:16:27.720Z,416.25
2019-05-26T08:17:27.705Z,438.75
2019-05-26T08:18:27.687Z,421.87
2019-05-26T08:19:27.673Z,388.12
2019-05-26T08:20:27.665Z,382.50
2019-05-26T08:21:27.657Z,421.87
2019-05-26T08:22:27.641Z,461.25
2019-05-26T08:23:27.630Z,489.37
2019-05-26T08:24:27.619Z,545.62
2019-05-26T08:25:27.606Z,601.87
2019-05-26T08:26:27.598Z,613.12
2019-05-26T08:27:27.590Z,556.87
2019-05-26T08:28:27.579Z,545.62
2019-05-26T08:29:27.561Z,630.00
2019-05-26T08:30:27.552Z,905.62
2019-05-26T08:31:27.537Z,990.00
2019-05-26T08:32:27.530Z,1040.62
2019-05-26T08:33:27.515Z,1012.50
2019-05-26T08:34:27.509Z,990.00
2019-05-26T08:35:27.494Z,961.87
2019-05-26T08:36:27.480Z,984.37
2019-05-26T08:37:27.472Z,1012.50
2019-05-26T08:38:27.461Z,1012.50
2019-05-26T08:39:27.452Z,995.62
2019-05-26T08:40:27.439Z,1029.37
2019-05-26T08:41:27.426Z,1074.37
2019-05-26T08:42:42.059Z,1074.37
2019-05-26T08:43:51.885Z,1063.12
2019-05-26T08:44:51.876Z,1080.00
2019-05-26T08:45:51.863Z,1119.37
2019-05-26T08:46:51.854Z,1136.25
2019-05-26T08:47:51.855Z,1254.37
2019-05-26T08:48:51.831Z,1338.75
2019-05-26T08:49:51.823Z,1265.62
2019-05-26T08:50:51.810Z,1243.12
2019-05-26T08:51:51.800Z,1226.25
2019-05-26T08:52:51.787Z,1299.37
2019-05-26T08:53:51.777Z,1215.00
2019-05-26T08:54:51.770Z,1248.75
2019-05-26T08:55:51.759Z,1260.00
2019-05-26T08:56:51.742Z,1316.25
2019-05-26T08:57:51.733Z,1366.87
2019-05-26T08:58:51.721Z,1361.25
2019-05-26T08:59:51.709Z,1383.75
2019-05-26T09:00:51.709Z,1473.75
2019-05-26T09:01:51.695Z,1440.00
2019-05-26T09:02:51.677Z,1383.75
2019-05-26T09:03:51.663Z,1333.12
2019-05-26T09:04:51.657Z,1366.87
2019-05-26T09:05:51.641Z,1316.25
2019-05-26T09:06:51.636Z,1366.87
2019-05-26T09:07:51.621Z,1423.12
2019-05-26T09:08:51.613Z,1530.00
2019-05-26T09:09:51.602Z,1597.50
2019-05-26T09:10:51.587Z,1558.12
2019-05-26T09:11:51.578Z,1541.25
2019-05-26T09:13:00.804Z,877.50
2019-05-26T09:13:52.576Z,1620.00
2019-05-26T09:14:51.547Z,1732.50
2019-05-26T09:15:51.533Z,736.87
2019-05-26T09:16:51.523Z,1760.62
2019-05-26T09:17:51.521Z,1805.62
2019-05-26T09:18:51.502Z,1743.75
2019-05-26T09:19:51.490Z,894.37
2019-05-26T09:20:51.483Z,1800.00
2019-05-26T09:21:51.473Z,1710.00
2019-05-26T09:22:51.469Z,1715.62
2019-05-26T09:23:51.452Z,1732.50
2019-05-26T09:24:51.443Z,1648.12
2019-05-26T09:25:51.431Z,748.12
2019-05-26T09:26:51.418Z,753.75
2019-05-26T09:27:51.409Z,1395.00
2019-05-26T09:28:51.401Z,781.87
2019-05-26T09:29:51.383Z,1113.75
2019-05-26T09:30:51.371Z,1231.87
2019-05-26T09:31:51.361Z,1485.00
2019-05-26T09:32:51.362Z,1518.75
2019-05-26T09:33:51.346Z,1558.12
2019-05-26T09:34:51.331Z,1485.00
2019-05-26T09:35:51.317Z,1530.00
2019-05-26T09:36:51.306Z,1485.00
2019-05-26T09:37:51.301Z,1670.62
2019-05-26T09:38:51.308Z,1681.87
2019-05-26T09:39:51.287Z,1558.12
2019-05-26T09:40:51.277Z,534.37
2019-05-26T09:41:51.275Z,1670.62
2019-05-26T09:42:51.280Z,1226.25
2019-05-26T09:43:51.284Z,1715.62
2019-05-26T09:44:51.229Z,1085.62
2019-05-26T09:45:51.228Z,798.75
2019-05-26T09:46:51.232Z,630.00
2019-05-26T09:47:51.258Z,528.75
2019-05-26T09:48:51.237Z,478.12
2019-05-26T09:49:51.176Z,680.62
2019-05-26T09:50:51.154Z,950.62
2019-05-26T09:51:51.149Z,1558.12
2019-05-26T09:52:51.139Z,646.87
2019-05-26T09:54:01.226Z,1698.75
2019-05-26T09:55:15.589Z,1693.12
2019-05-26T09:56:15.579Z,1783.12
2019-05-26T09:57:15.565Z,1873.12
2019-05-26T09:58:15.554Z,2030.62
2019-05-26T09:59:15.544Z,1608.75
2019-05-26T10:00:16.327Z,1788.75
2019-05-26T10:01:15.528Z,1378.12
2019-05-26T10:02:15.511Z,1580.62
2019-05-26T10:03:15.502Z,1704.37
2019-05-26T10:04:15.489Z,697.50
2019-05-26T10:05:15.485Z,691.87
2019-05-26T10:06:15.468Z,776.25
2019-05-26T10:07:16.108Z,1665.00
2019-05-26T10:08:15.449Z,1591.87
2019-05-26T10:09:15.436Z,939.37
2019-05-26T10:10:15.426Z,675.00
2019-05-26T10:11:15.413Z,838.12
2019-05-26T10:12:15.414Z,1119.37
2019-05-26T10:13:30.603Z,1321.87
2019-05-26T10:14:16.402Z,877.50
2019-05-26T10:15:15.371Z,933.75
2019-05-26T10:16:15.373Z,607.50
2019-05-26T10:17:15.354Z,1141.87
2019-05-26T10:18:15.347Z,1338.75
2019-05-26T10:19:15.333Z,697.50
2019-05-26T10:20:15.318Z,686.25
2019-05-26T10:21:15.311Z,1158.75
2019-05-26T10:22:15.292Z,511.87
2019-05-26T10:23:15.288Z,675.00
2019-05-26T10:24:15.275Z,1141.87
2019-05-26T10:25:15.260Z,1136.25
2019-05-26T10:26:15.250Z,1164.37
2019-05-26T10:27:15.237Z,680.62
2019-05-26T10:28:15.229Z,551.25
2019-05-26T10:29:15.216Z,877.50
2019-05-26T10:30:15.206Z,945.00
2019-05-26T10:31:15.195Z,1051.87
2019-05-26T10:32:15.192Z,663.75
2019-05-26T10:33:15.172Z,697.50
2019-05-26T10:34:15.170Z,1271.25
2019-05-26T10:35:15.152Z,1237.50
2019-05-26T10:36:15.139Z,669.37
2019-05-26T10:37:15.138Z,759.37
2019-05-26T10:38:15.117Z,371.25
2019-05-26T10:39:15.108Z,315.00
2019-05-26T10:40:15.105Z,343.12
2019-05-26T10:41:15.093Z,1130.62
2019-05-26T10:42:15.077Z,804.37
2019-05-26T10:43:15.067Z,821.25
2019-05-26T10:44:15.056Z,1288.12
2019-05-26T10:45:15.043Z,1350.00
2019-05-26T10:46:15.034Z,1063.12
2019-05-26T10:47:15.021Z,1141.87
2019-05-26T10:48:15.009Z,1085.62
2019-05-26T10:49:15.000Z,1029.37
2019-05-26T10:50:14.989Z,1006.87
2019-05-26T10:51:14.981Z,843.75
2019-05-26T10:52:14.966Z,551.25
2019-05-26T10:53:14.958Z,444.37
2019-05-26T10:54:14.944Z,641.25
2019-05-26T10:55:14.937Z,984.37
2019-05-26T10:56:14.923Z,1395.00
2019-05-26T10:57:14.912Z,1040.62
2019-05-26T10:58:14.901Z,1738.12
2019-05-26T10:59:14.889Z,1265.62
2019-05-26T11:00:14.880Z,720.00
2019-05-26T11:01:14.868Z,601.87
2019-05-26T11:02:14.873Z,928.12
2019-05-26T11:03:14.848Z,618.75
2019-05-26T11:04:14.837Z,534.37
2019-05-26T11:05:14.832Z,832.50
2019-05-26T11:06:14.812Z,545.62
2019-05-26T11:07:14.807Z,523.12
2019-05-26T11:08:14.795Z,568.12
2019-05-26T11:09:14.779Z,545.62
2019-05-26T11:10:14.773Z,1006.87
2019-05-26T11:11:14.759Z,1411.87
2019-05-26T11:12:14.762Z,871.87
2019-05-26T11:13:14.738Z,669.37
2019-05-26T11:14:14.728Z,838.12
2019-05-26T11:15:14.716Z,804.37
2019-05-26T11:16:14.705Z,708.75
2019-05-26T11:17:14.698Z,905.62
2019-05-26T11:18:14.683Z,933.75
2019-05-26T11:19:14.676Z,984.37
2019-05-26T11:20:14.660Z,804.37
2019-05-26T11:21:14.649Z,950.62
2019-05-26T11:22:14.638Z,1310.62
2019-05-26T11:23:14.631Z,1552.50
2019-05-26T11:24:14.617Z,1175.62
2019-05-26T11:25:14.617Z,675.00
2019-05-26T11:26:14.595Z,652.50
2019-05-26T11:27:15.119Z,652.50
2019-05-26T11:28:14.575Z,635.62
2019-05-26T11:29:14.563Z,630.00
2019-05-26T11:30:14.591Z,618.75
2019-05-26T11:31:14.548Z,652.50
2019-05-26T11:32:14.537Z,1698.75
2019-05-26T11:33:14.519Z,1288.12
2019-05-26T11:34:14.549Z,1074.37
2019-05-26T11:35:14.498Z,1411.87
2019-05-26T11:36:14.485Z,1423.12
2019-05-26T11:37:14.487Z,1237.50
2019-05-26T11:38:14.469Z,1276.87
2019-05-26T11:39:14.454Z,950.62
2019-05-26T11:40:14.442Z,871.87
2019-05-26T11:41:14.434Z,1440.00
2019-05-26T11:42:14.659Z,1080.00
2019-05-26T11:43:17.011Z,1051.87
2019-05-26T11:44:17.851Z,1816.87
2019-05-26T11:45:14.391Z,1181.25
2019-05-26T11:46:16.539Z,1057.50
2019-05-26T11:47:14.373Z,916.87
2019-05-26T11:48:14.365Z,1085.62
2019-05-26T11:49:14.354Z,708.75
2019-05-26T11:50:14.351Z,641.25
2019-05-26T11:51:14.327Z,590.62
2019-05-26T11:52:14.317Z,590.62
2019-05-26T11:53:14.308Z,562.50
2019-05-26T11:54:14.298Z,545.62
2019-05-26T11:55:14.294Z,540.00
2019-05-26T11:56:14.277Z,545.62
2019-05-26T11:57:14.263Z,551.25
2019-05-26T11:58:14.252Z,562.50
2019-05-26T11:59:14.247Z,534.37
2019-05-26T12:00:14.348Z,511.87
2019-05-26T12:01:14.219Z,489.37
2019-05-26T12:02:14.210Z,483.75
2019-05-26T12:03:14.197Z,472.50
2019-05-26T12:04:14.205Z,466.87
2019-05-26T12:05:17.539Z,528.75
2019-05-26T12:06:14.164Z,517.50
2019-05-26T12:07:14.156Z,551.25
2019-05-26T12:08:14.142Z,568.12
2019-05-26T12:09:14.147Z,697.50
2019-05-26T12:10:14.616Z,607.50
2019-05-26T12:11:14.110Z,641.25
2019-05-26T12:12:14.100Z,956.25
2019-05-26T12:13:14.089Z,748.12
2019-05-26T12:14:14.079Z,804.37
2019-05-26T12:15:14.100Z,720.00
2019-05-26T12:16:14.055Z,663.75
2019-05-26T12:17:14.049Z,635.62
2019-05-26T12:18:14.048Z,815.62
2019-05-26T12:19:14.022Z,675.00
2019-05-26T12:20:14.017Z,607.50
2019-05-26T12:21:14.002Z,579.37
2019-05-26T12:22:14.009Z,540.00
2019-05-26T12:23:13.980Z,528.75
2019-05-26T12:24:13.974Z,489.37
2019-05-26T12:25:13.976Z,478.12
2019-05-26T12:26:13.947Z,506.25
2019-05-26T12:27:13.936Z,556.87
2019-05-26T12:28:13.933Z,742.50
2019-05-26T12:29:13.919Z,556.87
2019-05-26T12:30:13.904Z,545.62
2019-05-26T12:31:13.897Z,562.50
2019-05-26T12:32:13.890Z,528.75
2019-05-26T12:33:13.922Z,534.37
2019-05-26T12:34:13.865Z,506.25
2019-05-26T12:35:13.854Z,472.50
2019-05-26T12:36:13.845Z,444.37
2019-05-26T12:37:13.830Z,421.87
2019-05-26T12:38:13.821Z,399.37
2019-05-26T12:39:13.810Z,360.00
2019-05-26T12:40:13.808Z,331.87
2019-05-26T12:41:13.788Z,331.87
2019-05-26T12:42:16.892Z,360.00
2019-05-26T12:43:13.772Z,405.00
2019-05-26T12:44:13.755Z,444.37
2019-05-26T12:45:13.743Z,472.50
2019-05-26T12:46:13.734Z,483.75
2019-05-26T12:47:13.724Z,506.25
2019-05-26T12:48:13.721Z,686.25
2019-05-26T12:49:13.706Z,517.50
2019-05-26T12:50:13.700Z,511.87
2019-05-26T12:51:13.680Z,495.00
2019-05-26T12:52:13.683Z,489.37
2019-05-26T12:53:13.668Z,489.37
2019-05-26T12:54:13.648Z,478.12
2019-05-26T12:55:13.640Z,466.87
2019-05-26T12:56:13.671Z,461.25
2019-05-26T12:57:13.614Z,461.25
2019-05-26T12:58:13.625Z,461.25
2019-05-26T12:59:13.601Z,466.87
2019-05-26T13:00:13.585Z,478.12
2019-05-26T13:01:13.576Z,506.25
2019-05-26T13:02:13.565Z,517.50
2019-05-26T13:03:13.553Z,500.62
2019-05-26T13:04:13.546Z,466.87
2019-05-26T13:05:13.530Z,444.37
2019-05-26T13:06:13.523Z,438.75
2019-05-26T13:07:13.519Z,444.37
2019-05-26T13:08:13.504Z,455.62
2019-05-26T13:09:13.490Z,466.87
2019-05-26T13:10:13.475Z,483.75
2019-05-26T13:11:13.468Z,495.00
2019-05-26T13:12:13.456Z,495.00
2019-05-26T13:13:13.449Z,500.62
2019-05-26T13:14:13.445Z,495.00
2019-05-26T13:15:13.428Z,495.00
2019-05-26T13:16:13.410Z,489.37
2019-05-26T13:17:13.402Z,472.50
2019-05-26T13:18:13.393Z,444.37
2019-05-26T13:19:13.378Z,416.25
2019-05-26T13:20:13.369Z,393.75
2019-05-26T13:21:13.359Z,382.50
2019-05-26T13:22:13.347Z,376.87
2019-05-26T13:23:13.342Z,376.87
2019-05-26T13:24:13.338Z,371.25
2019-05-26T13:25:13.318Z,360.00
2019-05-26T13:26:13.303Z,348.75
2019-05-26T13:27:13.294Z,348.75
2019-05-26T13:28:13.281Z,354.37
2019-05-26T13:29:13.278Z,360.00
2019-05-26T13:30:13.288Z,365.62
2019-05-26T13:31:13.251Z,365.62
2019-05-26T13:32:13.239Z,371.25
2019-05-26T13:33:13.233Z,371.25
2019-05-26T13:34:13.219Z,376.87
2019-05-26T13:35:13.208Z,382.50
2019-05-26T13:36:13.195Z,393.75
2019-05-26T13:37:13.185Z,405.00
2019-05-26T13:38:13.184Z,410.62
2019-05-26T13:39:13.171Z,405.00
2019-05-26T13:40:13.155Z,399.37
2019-05-26T13:41:13.149Z,388.12
2019-05-26T13:42:13.148Z,376.87
2019-05-26T13:43:13.121Z,371.25
2019-05-26T13:44:13.113Z,365.62
2019-05-26T13:45:22.489Z,360.00
2019-05-26T13:46:14.106Z,360.00
2019-05-26T13:47:25.394Z,365.62
2019-05-26T13:48:14.086Z,365.62
2019-05-26T13:49:13.074Z,360.00
2019-05-26T13:50:13.047Z,348.75
2019-05-26T13:51:13.037Z,343.12
2019-05-26T13:52:13.039Z,331.87
2019-05-26T13:53:13.018Z,320.62
2019-05-26T13:54:13.001Z,309.37
2019-05-26T13:55:12.995Z,309.37
2019-05-26T13:56:12.985Z,303.75
2019-05-26T13:57:12.972Z,298.12
2019-05-26T13:58:12.960Z,298.12
2019-05-26T13:59:12.946Z,292.50
2019-05-26T14:00:13.000Z,286.87
2019-05-26T14:01:12.926Z,281.25
2019-05-26T14:02:12.937Z,264.37
2019-05-26T14:03:12.943Z,253.12
2019-05-26T14:04:12.892Z,258.75
2019-05-26T14:05:12.879Z,258.75
2019-05-26T14:06:12.870Z,253.12
2019-05-26T14:07:12.863Z,264.37
2019-05-26T14:08:12.850Z,292.50
2019-05-26T14:09:12.837Z,309.37
2019-05-26T14:10:12.827Z,326.25
2019-05-26T14:11:12.816Z,320.62
2019-05-26T14:12:12.804Z,303.75
2019-05-26T14:13:12.796Z,298.12
2019-05-26T14:14:12.786Z,281.25
2019-05-26T14:15:12.779Z,275.62
2019-05-26T14:16:12.765Z,270.00
2019-05-26T14:17:12.752Z,264.37
2019-05-26T14:18:12.739Z,258.75
2019-05-26T14:19:12.727Z,241.87
2019-05-26T14:20:12.715Z,213.75
2019-05-26T14:21:12.704Z,196.87
2019-05-26T14:22:12.693Z,191.25
2019-05-26T14:23:12.687Z,196.87
2019-05-26T14:24:12.672Z,208.12
2019-05-26T14:25:15.619Z,213.75
2019-05-26T14:26:12.658Z,225.00
2019-05-26T14:27:12.639Z,241.87
2019-05-26T14:28:12.628Z,264.37
2019-05-26T14:29:12.620Z,286.87
2019-05-26T14:30:12.607Z,298.12
2019-05-26T14:31:12.600Z,292.50
2019-05-26T14:32:12.588Z,281.25
2019-05-26T14:33:12.577Z,275.62
2019-05-26T14:34:12.569Z,275.62
2019-05-26T14:35:12.551Z,281.25
2019-05-26T14:36:12.539Z,286.87
2019-05-26T14:37:12.532Z,303.75
2019-05-26T14:38:12.520Z,326.25
2019-05-26T14:39:12.505Z,337.50
2019-05-26T14:40:12.498Z,326.25
2019-05-26T14:41:12.483Z,320.62
2019-05-26T14:42:12.477Z,326.25
2019-05-26T14:43:12.462Z,337.50
2019-05-26T14:44:12.451Z,337.50
2019-05-26T14:45:12.443Z,337.50
2019-05-26T14:46:12.432Z,343.12